LOT792 EETN-EPWA
Flight info
| Callsign | LOT792 |
|---|---|
| Flight time | 1h 22m |
| Altitude | 32000 |
| Route | ORTAX DCT LUTAL DCT BERIL DCT BOKSU M857 GERVI DCT NEPOX |
| Aircraft | E195/M-SDE3GILORVW/S |
Departure
| Time | 2026-05-08 04:31 |
|---|---|
| Airport | Lennart Meri Tallinn Airport (EETN) |
Arrival
| Time | 2026-05-08 05:53 |
|---|---|
| Airport | Warsaw Chopin Airport (EPWA) |
| Time | Latitude | Longitude | Altitude | Speed | Heading |
|---|---|---|---|---|---|
| 2026-05-08 04:14 | 59.41694 | 24.80198 | 139 ft | 0 kts | 181° |
| 2026-05-08 04:24 | 59.41701 | 24.80199 | 139 ft | 2 kts | 181° |
| 2026-05-08 04:24 | 59.41716 | 24.80199 | 139 ft | 2 kts | 181° |
| 2026-05-08 04:25 | 59.41724 | 24.80199 | 139 ft | 0 kts | 181° |
| 2026-05-08 04:25 | 59.41739 | 24.80191 | 139 ft | 2 kts | 138° |
| 2026-05-08 04:25 | 59.41746 | 24.80166 | 139 ft | 2 kts | 99° |
| 2026-05-08 04:25 | 59.41747 | 24.80155 | 139 ft | 0 kts | 90° |
| 2026-05-08 04:27 | 59.41747 | 24.80159 | 139 ft | 0 kts | 90° |
| 2026-05-08 04:27 | 59.41747 | 24.80160 | 139 ft | 0 kts | 90° |
| 2026-05-08 04:27 | 59.41747 | 24.80175 | 139 ft | 2 kts | 91° |
| 2026-05-08 04:28 | 59.41746 | 24.80222 | 139 ft | 7 kts | 91° |
| 2026-05-08 04:28 | 59.41734 | 24.80414 | 139 ft | 8 kts | 102° |
| 2026-05-08 04:28 | 59.41694 | 24.80505 | 139 ft | 9 kts | 153° |
| 2026-05-08 04:28 | 59.41647 | 24.80522 | 139 ft | 12 kts | 184° |
| 2026-05-08 04:29 | 59.41510 | 24.80507 | 139 ft | 16 kts | 194° |
| 2026-05-08 04:29 | 59.41445 | 24.80491 | 139 ft | 6 kts | 164° |
| 2026-05-08 04:29 | 59.41397 | 24.80565 | 139 ft | 7 kts | 136° |
| 2026-05-08 04:29 | 59.41354 | 24.80652 | 139 ft | 9 kts | 133° |
| 2026-05-08 04:30 | 59.41330 | 24.80741 | 139 ft | 7 kts | 91° |
| 2026-05-08 04:30 | 59.41332 | 24.81068 | 139 ft | 60 kts | 90° |
| 2026-05-08 04:30 | 59.41329 | 24.82455 | 139 ft | 139 kts | 89° |
| 2026-05-08 04:30 | 59.41322 | 24.83898 | 204 ft | 174 kts | 89° |
| 2026-05-08 04:31 | 59.41149 | 24.87233 | 1225 ft | 199 kts | 116° |
| 2026-05-08 04:31 | 59.40168 | 24.88962 | 2218 ft | 207 kts | 154° |
| 2026-05-08 04:31 | 59.39193 | 24.89295 | 2626 ft | 222 kts | 184° |
| 2026-05-08 04:31 | 59.37381 | 24.87256 | 3397 ft | 246 kts | 236° |
| 2026-05-08 04:32 | 59.36694 | 24.85392 | 3755 ft | 262 kts | 233° |
| 2026-05-08 04:32 | 59.35364 | 24.82825 | 4475 ft | 280 kts | 220° |
| 2026-05-08 04:32 | 59.33232 | 24.79948 | 5788 ft | 286 kts | 213° |
| 2026-05-08 04:32 | 59.32081 | 24.78623 | 6527 ft | 286 kts | 211° |
| 2026-05-08 04:33 | 59.29781 | 24.76171 | 7866 ft | 287 kts | 210° |
| 2026-05-08 04:33 | 59.28009 | 24.74362 | 8773 ft | 291 kts | 210° |
| 2026-05-08 04:33 | 59.26211 | 24.72556 | 9629 ft | 295 kts | 210° |
| 2026-05-08 04:33 | 59.24401 | 24.70755 | 10461 ft | 299 kts | 210° |
| 2026-05-08 04:34 | 59.22536 | 24.68906 | 11210 ft | 307 kts | 210° |
| 2026-05-08 04:34 | 59.21252 | 24.67636 | 11672 ft | 313 kts | 210° |
| 2026-05-08 04:34 | 59.18613 | 24.65032 | 12532 ft | 326 kts | 210° |
| 2026-05-08 04:34 | 59.16592 | 24.63044 | 13291 ft | 331 kts | 211° |
| 2026-05-08 04:35 | 59.14554 | 24.61041 | 14116 ft | 334 kts | 211° |
| 2026-05-08 04:35 | 59.12473 | 24.58999 | 14974 ft | 335 kts | 211° |
| 2026-05-08 04:35 | 59.11122 | 24.57675 | 15523 ft | 335 kts | 211° |
| 2026-05-08 04:35 | 59.08345 | 24.54955 | 16574 ft | 338 kts | 212° |
| 2026-05-08 04:36 | 59.06238 | 24.52895 | 17326 ft | 341 kts | 212° |
| 2026-05-08 04:36 | 59.04854 | 24.51543 | 17805 ft | 342 kts | 212° |
| 2026-05-08 04:36 | 59.02716 | 24.49457 | 18523 ft | 345 kts | 212° |
| 2026-05-08 04:36 | 58.99872 | 24.46688 | 19495 ft | 348 kts | 212° |
| 2026-05-08 04:37 | 58.98437 | 24.45292 | 19963 ft | 349 kts | 212° |
| 2026-05-08 04:37 | 58.95552 | 24.42491 | 20853 ft | 353 kts | 212° |
| 2026-05-08 04:37 | 58.93351 | 24.40356 | 21496 ft | 356 kts | 212° |
| 2026-05-08 04:37 | 58.91140 | 24.38216 | 22134 ft | 358 kts | 212° |
| 2026-05-08 04:38 | 58.89682 | 24.36806 | 22529 ft | 360 kts | 212° |
| 2026-05-08 04:38 | 58.87441 | 24.34642 | 23119 ft | 363 kts | 211° |
| 2026-05-08 04:38 | 58.85148 | 24.32526 | 23694 ft | 370 kts | 204° |
| 2026-05-08 04:38 | 58.82634 | 24.31250 | 24291 ft | 377 kts | 198° |
| 2026-05-08 04:39 | 58.79247 | 24.29752 | 25048 ft | 380 kts | 198° |
| 2026-05-08 04:39 | 58.77520 | 24.28992 | 25416 ft | 383 kts | 198° |
| 2026-05-08 04:39 | 58.74083 | 24.27483 | 26147 ft | 387 kts | 198° |
| 2026-05-08 04:39 | 58.72338 | 24.26718 | 26497 ft | 389 kts | 198° |
| 2026-05-08 04:40 | 58.69679 | 24.25554 | 27010 ft | 393 kts | 198° |
| 2026-05-08 04:40 | 58.66143 | 24.24009 | 27698 ft | 397 kts | 197° |
| 2026-05-08 04:40 | 58.64328 | 24.23217 | 28053 ft | 399 kts | 197° |
| 2026-05-08 04:40 | 58.61632 | 24.22042 | 28544 ft | 402 kts | 197° |
| 2026-05-08 04:41 | 58.58897 | 24.20853 | 29056 ft | 405 kts | 197° |
| 2026-05-08 04:41 | 58.56162 | 24.19665 | 29557 ft | 407 kts | 197° |
| 2026-05-08 04:41 | 58.52490 | 24.18074 | 30238 ft | 410 kts | 197° |
| 2026-05-08 04:41 | 58.49707 | 24.16870 | 30688 ft | 413 kts | 197° |
| 2026-05-08 04:42 | 58.47870 | 24.16076 | 30975 ft | 415 kts | 197° |
| 2026-05-08 04:42 | 58.45059 | 24.14863 | 31383 ft | 419 kts | 197° |
| 2026-05-08 04:42 | 58.42181 | 24.13623 | 31812 ft | 422 kts | 196° |
| 2026-05-08 04:42 | 58.38396 | 24.11998 | 32206 ft | 418 kts | 196° |
| 2026-05-08 04:43 | 58.33601 | 24.09939 | 32241 ft | 438 kts | 196° |
| 2026-05-08 04:43 | 58.30582 | 24.08647 | 32240 ft | 449 kts | 196° |
| 2026-05-08 04:43 | 58.26532 | 24.06918 | 32232 ft | 452 kts | 195° |
| 2026-05-08 04:44 | 58.20446 | 24.04329 | 32221 ft | 449 kts | 195° |
| 2026-05-08 04:44 | 58.15354 | 24.02168 | 32221 ft | 449 kts | 195° |
| 2026-05-08 04:45 | 58.08289 | 23.99180 | 32218 ft | 449 kts | 195° |
| 2026-05-08 04:45 | 58.03208 | 23.97039 | 32216 ft | 449 kts | 195° |
| 2026-05-08 04:46 | 57.97150 | 23.94495 | 32218 ft | 449 kts | 195° |
| 2026-05-08 04:46 | 57.91090 | 23.91957 | 32219 ft | 449 kts | 195° |
| 2026-05-08 04:47 | 57.84959 | 23.89821 | 32214 ft | 448 kts | 192° |
| 2026-05-08 04:47 | 57.78831 | 23.87805 | 32214 ft | 448 kts | 193° |
| 2026-05-08 04:48 | 57.72742 | 23.85803 | 32211 ft | 445 kts | 193° |
| 2026-05-08 04:48 | 57.66687 | 23.83818 | 32211 ft | 445 kts | 193° |
| 2026-05-08 04:49 | 57.60619 | 23.81835 | 32208 ft | 443 kts | 193° |
| 2026-05-08 04:49 | 57.54587 | 23.79871 | 32208 ft | 443 kts | 193° |
| 2026-05-08 04:50 | 57.48540 | 23.77909 | 32203 ft | 442 kts | 193° |
| 2026-05-08 04:50 | 57.42495 | 23.75954 | 32202 ft | 439 kts | 193° |
| 2026-05-08 04:51 | 57.36494 | 23.74020 | 32199 ft | 439 kts | 193° |
| 2026-05-08 04:51 | 57.30529 | 23.72103 | 32204 ft | 438 kts | 193° |
| 2026-05-08 04:52 | 57.24569 | 23.70195 | 32195 ft | 434 kts | 193° |
| 2026-05-08 04:52 | 57.18636 | 23.68301 | 32201 ft | 435 kts | 193° |
| 2026-05-08 04:53 | 57.12725 | 23.66421 | 32196 ft | 432 kts | 193° |
| 2026-05-08 04:53 | 57.05829 | 23.64235 | 32200 ft | 432 kts | 193° |
| 2026-05-08 04:54 | 57.00930 | 23.62687 | 32197 ft | 429 kts | 193° |
| 2026-05-08 04:54 | 56.95055 | 23.60836 | 32199 ft | 429 kts | 193° |
| 2026-05-08 04:55 | 56.89185 | 23.58992 | 32198 ft | 429 kts | 193° |
| 2026-05-08 04:55 | 56.83336 | 23.57161 | 32194 ft | 426 kts | 193° |
| 2026-05-08 04:56 | 56.77516 | 23.55345 | 32193 ft | 426 kts | 193° |
| 2026-05-08 04:56 | 56.71722 | 23.53542 | 32185 ft | 425 kts | 193° |
| 2026-05-08 04:57 | 56.65919 | 23.51743 | 32183 ft | 425 kts | 193° |
| 2026-05-08 04:57 | 56.60102 | 23.49945 | 32180 ft | 424 kts | 193° |
| 2026-05-08 04:58 | 56.54332 | 23.48166 | 32181 ft | 422 kts | 193° |
| 2026-05-08 04:58 | 56.48550 | 23.46390 | 32180 ft | 422 kts | 193° |
| 2026-05-08 04:59 | 56.42784 | 23.44624 | 32180 ft | 422 kts | 193° |
| 2026-05-08 04:59 | 56.37033 | 23.42867 | 32173 ft | 420 kts | 193° |
| 2026-05-08 05:00 | 56.31249 | 23.41681 | 32169 ft | 421 kts | 189° |
| 2026-05-08 05:00 | 56.25416 | 23.40600 | 32169 ft | 420 kts | 189° |
| 2026-05-08 05:01 | 56.19620 | 23.39517 | 32168 ft | 419 kts | 189° |
| 2026-05-08 05:01 | 56.13840 | 23.38441 | 32164 ft | 421 kts | 189° |
| 2026-05-08 05:02 | 56.08077 | 23.37370 | 32155 ft | 419 kts | 189° |
| 2026-05-08 05:02 | 56.02287 | 23.36298 | 32155 ft | 419 kts | 189° |
| 2026-05-08 05:03 | 55.96517 | 23.35232 | 32157 ft | 418 kts | 189° |
| 2026-05-08 05:03 | 55.90754 | 23.34171 | 32152 ft | 418 kts | 188° |
| 2026-05-08 05:04 | 55.84995 | 23.33114 | 32163 ft | 417 kts | 188° |
| 2026-05-08 05:04 | 55.79268 | 23.32066 | 32159 ft | 416 kts | 188° |
| 2026-05-08 05:05 | 55.73517 | 23.31017 | 32150 ft | 416 kts | 188° |
| 2026-05-08 05:05 | 55.67751 | 23.29968 | 32142 ft | 415 kts | 188° |
| 2026-05-08 05:06 | 55.62040 | 23.28932 | 32139 ft | 416 kts | 188° |
| 2026-05-08 05:06 | 55.56289 | 23.27892 | 32125 ft | 416 kts | 188° |
| 2026-05-08 05:07 | 55.50574 | 23.26861 | 32128 ft | 417 kts | 188° |
| 2026-05-08 05:07 | 55.44803 | 23.25823 | 32126 ft | 416 kts | 188° |
| 2026-05-08 05:08 | 55.39079 | 23.24798 | 32122 ft | 415 kts | 187° |
| 2026-05-08 05:08 | 55.33372 | 23.23777 | 32120 ft | 416 kts | 187° |
| 2026-05-08 05:09 | 55.27632 | 23.22754 | 32114 ft | 416 kts | 187° |
| 2026-05-08 05:09 | 55.21899 | 23.21735 | 32113 ft | 415 kts | 187° |
| 2026-05-08 05:10 | 55.13321 | 23.20216 | 32102 ft | 414 kts | 187° |
| 2026-05-08 05:11 | 55.07613 | 23.19209 | 32107 ft | 414 kts | 187° |
| 2026-05-08 05:11 | 55.01906 | 23.18205 | 32096 ft | 413 kts | 187° |
| 2026-05-08 05:12 | 54.96182 | 23.17201 | 32091 ft | 414 kts | 187° |
| 2026-05-08 05:12 | 54.90463 | 23.16200 | 32097 ft | 414 kts | 187° |
| 2026-05-08 05:13 | 54.84758 | 23.15205 | 32107 ft | 414 kts | 187° |
| 2026-05-08 05:13 | 54.79073 | 23.14216 | 32094 ft | 414 kts | 187° |
| 2026-05-08 05:14 | 54.73347 | 23.13224 | 32098 ft | 413 kts | 187° |
| 2026-05-08 05:14 | 54.67660 | 23.12240 | 32089 ft | 415 kts | 187° |
| 2026-05-08 05:15 | 54.61931 | 23.11252 | 32091 ft | 413 kts | 187° |
| 2026-05-08 05:15 | 54.56236 | 23.10272 | 32081 ft | 414 kts | 187° |
| 2026-05-08 05:16 | 54.50531 | 23.09294 | 32081 ft | 414 kts | 187° |
| 2026-05-08 05:16 | 54.44822 | 23.08317 | 32071 ft | 414 kts | 187° |
| 2026-05-08 05:17 | 54.39080 | 23.07338 | 32071 ft | 413 kts | 187° |
| 2026-05-08 05:17 | 54.33378 | 23.06368 | 32070 ft | 415 kts | 187° |
| 2026-05-08 05:18 | 54.27834 | 23.04021 | 32068 ft | 413 kts | 201° |
| 2026-05-08 05:18 | 54.22507 | 23.00400 | 32052 ft | 413 kts | 201° |
| 2026-05-08 05:19 | 54.17151 | 22.96815 | 32059 ft | 414 kts | 201° |
| 2026-05-08 05:19 | 54.11810 | 22.93254 | 32051 ft | 414 kts | 201° |
| 2026-05-08 05:20 | 54.06443 | 22.89856 | 32055 ft | 414 kts | 195° |
| 2026-05-08 05:20 | 53.99895 | 22.87333 | 32047 ft | 412 kts | 193° |
| 2026-05-08 05:21 | 53.95249 | 22.85567 | 32051 ft | 412 kts | 193° |
| 2026-05-08 05:21 | 53.89667 | 22.83448 | 32051 ft | 413 kts | 193° |
| 2026-05-08 05:22 | 53.84078 | 22.81333 | 32060 ft | 413 kts | 193° |
| 2026-05-08 05:22 | 53.78496 | 22.79226 | 32058 ft | 414 kts | 193° |
| 2026-05-08 05:23 | 53.72884 | 22.77112 | 32058 ft | 413 kts | 193° |
| 2026-05-08 05:23 | 53.67267 | 22.75002 | 32058 ft | 414 kts | 192° |
| 2026-05-08 05:24 | 53.61681 | 22.72910 | 32054 ft | 413 kts | 192° |
| 2026-05-08 05:24 | 53.56099 | 22.70824 | 32054 ft | 414 kts | 192° |
| 2026-05-08 05:25 | 53.50517 | 22.68745 | 32052 ft | 413 kts | 193° |
| 2026-05-08 05:25 | 53.44913 | 22.66662 | 32055 ft | 412 kts | 192° |
| 2026-05-08 05:26 | 53.39323 | 22.64590 | 32057 ft | 412 kts | 192° |
| 2026-05-08 05:26 | 53.33741 | 22.62527 | 32054 ft | 413 kts | 192° |
| 2026-05-08 05:27 | 53.28133 | 22.60460 | 32059 ft | 412 kts | 192° |
| 2026-05-08 05:27 | 53.22553 | 22.58408 | 32052 ft | 413 kts | 192° |
| 2026-05-08 05:28 | 53.16984 | 22.56365 | 32039 ft | 400 kts | 192° |
| 2026-05-08 05:28 | 53.11667 | 22.54420 | 32050 ft | 393 kts | 192° |
| 2026-05-08 05:29 | 53.06298 | 22.52461 | 31654 ft | 398 kts | 192° |
| 2026-05-08 05:29 | 53.03598 | 22.51477 | 31231 ft | 398 kts | 192° |
| 2026-05-08 05:29 | 53.00919 | 22.50502 | 30778 ft | 395 kts | 192° |
| 2026-05-08 05:29 | 52.98253 | 22.49534 | 30316 ft | 392 kts | 192° |
| 2026-05-08 05:30 | 52.95613 | 22.48576 | 29889 ft | 389 kts | 191° |
| 2026-05-08 05:30 | 52.92972 | 22.47619 | 29466 ft | 389 kts | 192° |
| 2026-05-08 05:30 | 52.90348 | 22.46669 | 29030 ft | 387 kts | 191° |
| 2026-05-08 05:30 | 52.87734 | 22.45725 | 28615 ft | 385 kts | 192° |
| 2026-05-08 05:31 | 52.85125 | 22.44783 | 28188 ft | 384 kts | 192° |
| 2026-05-08 05:31 | 52.82545 | 22.43852 | 27768 ft | 382 kts | 191° |
| 2026-05-08 05:31 | 52.79969 | 22.42925 | 27348 ft | 380 kts | 192° |
| 2026-05-08 05:31 | 52.77384 | 22.41994 | 26929 ft | 380 kts | 191° |
| 2026-05-08 05:32 | 52.74818 | 22.41073 | 26512 ft | 378 kts | 191° |
| 2026-05-08 05:32 | 52.72248 | 22.40151 | 26094 ft | 376 kts | 191° |
| 2026-05-08 05:32 | 52.69706 | 22.39241 | 25678 ft | 376 kts | 191° |
| 2026-05-08 05:32 | 52.67174 | 22.38334 | 25263 ft | 374 kts | 191° |
| 2026-05-08 05:33 | 52.64657 | 22.37435 | 24853 ft | 372 kts | 191° |
| 2026-05-08 05:33 | 52.62112 | 22.36527 | 24455 ft | 371 kts | 191° |
| 2026-05-08 05:33 | 52.59632 | 22.35642 | 24045 ft | 369 kts | 191° |
| 2026-05-08 05:33 | 52.57138 | 22.34755 | 23635 ft | 368 kts | 190° |
| 2026-05-08 05:34 | 52.55321 | 22.34108 | 23344 ft | 367 kts | 190° |
| 2026-05-08 05:34 | 52.54081 | 22.33667 | 23135 ft | 367 kts | 190° |
| 2026-05-08 05:34 | 52.51603 | 22.32787 | 22748 ft | 365 kts | 190° |
| 2026-05-08 05:34 | 52.49120 | 22.31906 | 22332 ft | 363 kts | 190° |
| 2026-05-08 05:35 | 52.46647 | 22.31030 | 21937 ft | 363 kts | 191° |
| 2026-05-08 05:35 | 52.44215 | 22.30169 | 21523 ft | 362 kts | 191° |
| 2026-05-08 05:35 | 52.41773 | 22.29305 | 21143 ft | 360 kts | 191° |
| 2026-05-08 05:35 | 52.39319 | 22.28439 | 20753 ft | 359 kts | 191° |
| 2026-05-08 05:36 | 52.36895 | 22.27584 | 20354 ft | 358 kts | 191° |
| 2026-05-08 05:36 | 52.34477 | 22.26733 | 19955 ft | 357 kts | 191° |
| 2026-05-08 05:36 | 52.32052 | 22.25880 | 19559 ft | 357 kts | 190° |
| 2026-05-08 05:36 | 52.29647 | 22.25035 | 19156 ft | 355 kts | 191° |
| 2026-05-08 05:37 | 52.27241 | 22.24190 | 18766 ft | 353 kts | 191° |
| 2026-05-08 05:37 | 52.24840 | 22.23350 | 18384 ft | 352 kts | 191° |
| 2026-05-08 05:37 | 52.22470 | 22.22517 | 18011 ft | 351 kts | 191° |
| 2026-05-08 05:37 | 52.20104 | 22.21691 | 17629 ft | 349 kts | 191° |
| 2026-05-08 05:38 | 52.17719 | 22.20821 | 17228 ft | 349 kts | 196° |
| 2026-05-08 05:38 | 52.15649 | 22.18928 | 16852 ft | 349 kts | 221° |
| 2026-05-08 05:38 | 52.14218 | 22.15746 | 16434 ft | 352 kts | 240° |
| 2026-05-08 05:38 | 52.13096 | 22.12176 | 16013 ft | 352 kts | 242° |
| 2026-05-08 05:39 | 52.12000 | 22.08647 | 15619 ft | 352 kts | 242° |
| 2026-05-08 05:39 | 52.10904 | 22.05113 | 15235 ft | 349 kts | 242° |
| 2026-05-08 05:39 | 52.09821 | 22.01616 | 14845 ft | 349 kts | 242° |
| 2026-05-08 05:39 | 52.08736 | 21.98120 | 14462 ft | 348 kts | 242° |
| 2026-05-08 05:40 | 52.07650 | 21.94619 | 14080 ft | 346 kts | 242° |
| 2026-05-08 05:40 | 52.06571 | 21.91151 | 13702 ft | 344 kts | 242° |
| 2026-05-08 05:40 | 52.05500 | 21.87711 | 13327 ft | 341 kts | 242° |
| 2026-05-08 05:40 | 52.04443 | 21.84322 | 12956 ft | 338 kts | 242° |
| 2026-05-08 05:41 | 52.03384 | 21.80931 | 12584 ft | 335 kts | 243° |
| 2026-05-08 05:41 | 52.02348 | 21.77618 | 12212 ft | 333 kts | 243° |
| 2026-05-08 05:41 | 52.01306 | 21.74292 | 11847 ft | 329 kts | 243° |
| 2026-05-08 05:41 | 52.00283 | 21.71031 | 11493 ft | 323 kts | 243° |
| 2026-05-08 05:42 | 51.99273 | 21.67813 | 11135 ft | 316 kts | 243° |
| 2026-05-08 05:42 | 51.98289 | 21.64684 | 10783 ft | 307 kts | 244° |
| 2026-05-08 05:42 | 51.97337 | 21.61661 | 10453 ft | 299 kts | 244° |
| 2026-05-08 05:42 | 51.96398 | 21.58681 | 10127 ft | 291 kts | 244° |
| 2026-05-08 05:43 | 51.95492 | 21.55810 | 9810 ft | 283 kts | 244° |
| 2026-05-08 05:43 | 51.94613 | 21.53027 | 9503 ft | 276 kts | 244° |
| 2026-05-08 05:43 | 51.93750 | 21.50300 | 9205 ft | 269 kts | 244° |
| 2026-05-08 05:43 | 51.92911 | 21.47650 | 8912 ft | 263 kts | 244° |
| 2026-05-08 05:44 | 51.92092 | 21.45067 | 8627 ft | 256 kts | 244° |
| 2026-05-08 05:44 | 51.91288 | 21.42532 | 8348 ft | 250 kts | 244° |
| 2026-05-08 05:44 | 51.90500 | 21.40052 | 8075 ft | 245 kts | 244° |
| 2026-05-08 05:44 | 51.89736 | 21.37647 | 7810 ft | 240 kts | 244° |
| 2026-05-08 05:45 | 51.88968 | 21.35253 | 7550 ft | 239 kts | 244° |
| 2026-05-08 05:45 | 51.88191 | 21.32887 | 7297 ft | 239 kts | 243° |
| 2026-05-08 05:45 | 51.87410 | 21.30514 | 7036 ft | 239 kts | 243° |
| 2026-05-08 05:45 | 51.86625 | 21.28131 | 6772 ft | 239 kts | 243° |
| 2026-05-08 05:46 | 51.86127 | 21.25630 | 6499 ft | 234 kts | 274° |
| 2026-05-08 05:46 | 51.86661 | 21.23243 | 6247 ft | 233 kts | 310° |
| 2026-05-08 05:46 | 51.87899 | 21.21516 | 5808 ft | 236 kts | 322° |
| 2026-05-08 05:46 | 51.89333 | 21.20186 | 5334 ft | 240 kts | 332° |
| 2026-05-08 05:47 | 51.90807 | 21.18948 | 4849 ft | 244 kts | 332° |
| 2026-05-08 05:47 | 51.92321 | 21.17663 | 4346 ft | 247 kts | 332° |
| 2026-05-08 05:47 | 51.93846 | 21.16362 | 3838 ft | 250 kts | 332° |
| 2026-05-08 05:47 | 51.95360 | 21.15064 | 3234 ft | 244 kts | 332° |
| 2026-05-08 05:48 | 51.96814 | 21.13815 | 3110 ft | 228 kts | 332° |
| 2026-05-08 05:48 | 51.98171 | 21.12647 | 3051 ft | 218 kts | 332° |
| 2026-05-08 05:48 | 51.99511 | 21.11492 | 3062 ft | 218 kts | 332° |
| 2026-05-08 05:48 | 52.00852 | 21.10334 | 3062 ft | 217 kts | 332° |
| 2026-05-08 05:49 | 52.02126 | 21.09233 | 3103 ft | 199 kts | 332° |
| 2026-05-08 05:49 | 52.03302 | 21.08216 | 3066 ft | 183 kts | 332° |
| 2026-05-08 05:49 | 52.04422 | 21.07246 | 2836 ft | 179 kts | 332° |
| 2026-05-08 05:49 | 52.05514 | 21.06302 | 2612 ft | 177 kts | 332° |
| 2026-05-08 05:50 | 52.06597 | 21.05365 | 2383 ft | 176 kts | 332° |
| 2026-05-08 05:50 | 52.07643 | 21.04460 | 2139 ft | 166 kts | 332° |
| 2026-05-08 05:50 | 52.08622 | 21.03611 | 1956 ft | 152 kts | 333° |
| 2026-05-08 05:50 | 52.09547 | 21.02809 | 1744 ft | 152 kts | 333° |
| 2026-05-08 05:51 | 52.10444 | 21.02034 | 1510 ft | 137 kts | 334° |
| 2026-05-08 05:51 | 52.11253 | 21.01336 | 1324 ft | 130 kts | 332° |
| 2026-05-08 05:51 | 52.12058 | 21.00636 | 1162 ft | 131 kts | 333° |
| 2026-05-08 05:51 | 52.12861 | 20.99938 | 990 ft | 133 kts | 333° |
| 2026-05-08 05:52 | 52.13679 | 20.99227 | 810 ft | 132 kts | 331° |
| 2026-05-08 05:52 | 52.14490 | 20.98525 | 596 ft | 133 kts | 333° |
| 2026-05-08 05:52 | 52.15305 | 20.97818 | 443 ft | 133 kts | 332° |
| 2026-05-08 05:52 | 52.16110 | 20.97119 | 366 ft | 128 kts | 332° |
| 2026-05-08 05:53 | 52.16748 | 20.96561 | 365 ft | 80 kts | 332° |
| 2026-05-08 05:53 | 52.17041 | 20.96311 | 365 ft | 31 kts | 338° |
| 2026-05-08 05:53 | 52.17249 | 20.96245 | 365 ft | 29 kts | 4° |
| 2026-05-08 05:53 | 52.17356 | 20.96254 | 365 ft | 7 kts | 8° |
| 2026-05-08 05:54 | 52.17401 | 20.96308 | 365 ft | 8 kts | 54° |
| 2026-05-08 05:54 | 52.17433 | 20.96400 | 365 ft | 10 kts | 63° |
| 2026-05-08 05:54 | 52.17469 | 20.96509 | 365 ft | 11 kts | 61° |
| 2026-05-08 05:54 | 52.17519 | 20.96610 | 365 ft | 8 kts | 53° |
| 2026-05-08 05:55 | 52.17527 | 20.96685 | 365 ft | 7 kts | 120° |
| 2026-05-08 05:55 | 52.17494 | 20.96748 | 365 ft | 5 kts | 133° |
| 2026-05-08 05:55 | 52.17482 | 20.96769 | 365 ft | 0 kts | 133° |
| 2026-05-08 05:55 | 52.17480 | 20.96771 | 365 ft | 0 kts | 133° |